createdAt,value
2018-03-08T00:00:38.652Z,173.70
2018-03-08T00:01:38.672Z,173.20
2018-03-08T00:02:38.688Z,174.70
2018-03-08T00:03:38.716Z,184.90
2018-03-08T00:04:38.727Z,175.30
2018-03-08T00:05:38.742Z,157.20
2018-03-08T00:06:38.767Z,196.40
2018-03-08T00:07:38.783Z,211.90
2018-03-08T00:08:38.807Z,272.90
2018-03-08T00:09:38.817Z,255.10
2018-03-08T00:10:38.831Z,194.40
2018-03-08T00:11:38.856Z,206.20
2018-03-08T00:12:38.867Z,228.50
2018-03-08T00:13:38.888Z,205.70
2018-03-08T00:14:38.910Z,231.30
2018-03-08T00:15:38.926Z,195.30
2018-03-08T00:16:38.939Z,179.00
2018-03-08T00:17:38.956Z,216.40
2018-03-08T00:18:38.974Z,211.40
2018-03-08T00:19:38.993Z,240.50
2018-03-08T00:20:39.019Z,233.00
2018-03-08T00:21:39.027Z,246.60
2018-03-08T00:22:39.052Z,293.30
2018-03-08T00:23:39.062Z,283.00
2018-03-08T00:24:39.084Z,302.80
2018-03-08T00:25:39.096Z,279.30
2018-03-08T00:26:39.116Z,284.60
2018-03-08T00:27:39.136Z,310.30
2018-03-08T00:28:39.149Z,324.10
2018-03-08T00:29:39.169Z,329.90
2018-03-08T00:30:39.190Z,363.10
2018-03-08T00:31:39.205Z,277.20
2018-03-08T00:32:39.222Z,264.60
2018-03-08T00:33:39.244Z,233.60
2018-03-08T00:34:39.259Z,199.70
2018-03-08T00:35:39.292Z,197.40
2018-03-08T00:36:39.304Z,239.30
2018-03-08T00:37:39.311Z,223.60
2018-03-08T00:38:39.333Z,271.50
2018-03-08T00:39:39.346Z,293.20
2018-03-08T00:40:39.369Z,259.80
2018-03-08T00:41:39.424Z,227.50
2018-03-08T00:42:39.400Z,212.20
2018-03-08T00:43:39.418Z,244.50
2018-03-08T00:44:39.438Z,211.50
2018-03-08T00:45:39.449Z,236.00
2018-03-08T00:46:39.469Z,325.50
2018-03-08T00:47:39.488Z,214.40
2018-03-08T00:48:39.504Z,231.60
2018-03-08T00:49:39.519Z,177.00
2018-03-08T00:50:39.542Z,189.00
2018-03-08T00:51:39.559Z,214.80
2018-03-08T00:52:39.578Z,215.30
2018-03-08T00:53:39.594Z,179.80
2018-03-08T00:54:39.609Z,205.00
2018-03-08T00:55:39.631Z,196.20
2018-03-08T00:56:39.653Z,200.50
2018-03-08T00:57:39.661Z,189.50
2018-03-08T00:58:39.684Z,204.50
2018-03-08T00:59:39.699Z,205.80
2018-03-08T01:00:39.716Z,203.20
2018-03-08T01:01:39.735Z,181.80
2018-03-08T01:02:39.754Z,180.30
2018-03-08T01:03:39.768Z,182.70
2018-03-08T01:04:39.789Z,191.00
2018-03-08T01:05:39.804Z,193.40
2018-03-08T01:06:39.821Z,190.90
2018-03-08T01:07:39.842Z,168.50
2018-03-08T01:08:39.863Z,173.20
2018-03-08T01:09:39.886Z,201.70
2018-03-08T01:10:39.890Z,199.40
2018-03-08T01:11:39.909Z,174.90
2018-03-08T01:12:39.923Z,155.40
2018-03-08T01:13:39.948Z,165.60
2018-03-08T01:14:39.966Z,189.20
2018-03-08T01:15:39.980Z,165.70
2018-03-08T01:16:39.993Z,159.60
2018-03-08T01:17:40.012Z,175.50
2018-03-08T01:18:40.062Z,203.10
2018-03-08T01:19:40.050Z,197.20
2018-03-08T01:20:40.062Z,194.40
2018-03-08T01:21:40.086Z,165.10
2018-03-08T01:22:40.101Z,162.00
2018-03-08T01:23:40.123Z,159.70
2018-03-08T01:24:40.190Z,157.90
2018-03-08T01:25:40.156Z,171.30
2018-03-08T01:26:40.169Z,153.10
2018-03-08T01:27:40.188Z,173.50
2018-03-08T01:28:40.207Z,176.60
2018-03-08T01:29:40.220Z,187.90
2018-03-08T01:30:40.239Z,182.20
2018-03-08T01:31:40.256Z,151.40
2018-03-08T01:32:40.281Z,170.00
2018-03-08T01:33:40.295Z,159.70
2018-03-08T01:34:40.312Z,139.30
2018-03-08T01:35:40.332Z,166.20
2018-03-08T01:36:40.342Z,157.20
2018-03-08T01:37:40.362Z,161.90
2018-03-08T01:38:40.376Z,196.60
2018-03-08T01:39:40.391Z,162.90
2018-03-08T01:40:40.417Z,160.10
2018-03-08T01:41:40.431Z,142.40
2018-03-08T01:42:40.449Z,139.30
2018-03-08T01:43:40.466Z,149.90
2018-03-08T01:44:40.480Z,161.50
2018-03-08T01:45:40.496Z,155.40
2018-03-08T01:46:40.515Z,149.30
2018-03-08T01:47:40.537Z,158.50
2018-03-08T01:48:40.552Z,141.00
2018-03-08T01:49:40.571Z,143.60
2018-03-08T01:50:40.586Z,154.20
2018-03-08T01:51:40.610Z,175.20
2018-03-08T01:52:40.621Z,157.30
2018-03-08T01:53:40.642Z,170.20
2018-03-08T01:54:40.656Z,200.50
2018-03-08T01:55:40.679Z,185.30
2018-03-08T01:56:40.692Z,188.50
2018-03-08T01:57:40.710Z,188.80
2018-03-08T01:58:40.724Z,187.90
2018-03-08T01:59:40.742Z,153.90
2018-03-08T02:00:40.768Z,158.70
2018-03-08T02:01:40.779Z,177.10
2018-03-08T02:02:40.800Z,161.80
2018-03-08T02:03:40.820Z,169.80
2018-03-08T02:04:40.830Z,187.20
2018-03-08T02:05:40.850Z,170.20
2018-03-08T02:06:40.865Z,184.00
2018-03-08T02:07:40.882Z,161.90
2018-03-08T02:08:40.904Z,180.40
2018-03-08T02:09:40.920Z,155.90
2018-03-08T02:10:40.937Z,148.60
2018-03-08T02:11:40.955Z,149.00
2018-03-08T02:12:40.969Z,148.40
2018-03-08T02:13:40.989Z,159.70
2018-03-08T02:14:41.013Z,165.90
2018-03-08T02:15:41.023Z,166.10
2018-03-08T02:16:41.043Z,143.60
2018-03-08T02:17:41.062Z,132.50
2018-03-08T02:18:41.076Z,134.90
2018-03-08T02:19:41.094Z,144.30
2018-03-08T02:20:41.109Z,144.70
2018-03-08T02:21:41.136Z,153.30
2018-03-08T02:22:41.149Z,167.00
2018-03-08T02:23:41.166Z,139.00
2018-03-08T02:24:41.184Z,152.60
2018-03-08T02:25:41.199Z,153.60
2018-03-08T02:26:41.218Z,171.20
2018-03-08T02:27:41.233Z,156.40
2018-03-08T02:28:41.253Z,154.30
2018-03-08T02:29:41.276Z,161.20
2018-03-08T02:30:41.286Z,163.00
2018-03-08T02:31:41.304Z,152.50
2018-03-08T02:32:41.324Z,157.40
2018-03-08T02:33:41.340Z,162.60
2018-03-08T02:34:41.359Z,134.30
2018-03-08T02:35:41.373Z,151.20
2018-03-08T02:36:41.398Z,154.00
2018-03-08T02:37:41.411Z,135.10
2018-03-08T02:38:41.428Z,153.20
2018-03-08T02:39:41.444Z,145.20
2018-03-08T02:40:41.466Z,158.90
2018-03-08T02:41:41.482Z,146.20
2018-03-08T02:42:41.498Z,135.40
2018-03-08T02:43:41.516Z,132.60
2018-03-08T02:44:41.534Z,132.60
2018-03-08T02:45:41.555Z,147.10
2018-03-08T02:46:41.573Z,144.40
2018-03-08T02:47:41.587Z,126.00
2018-03-08T02:48:41.602Z,128.00
2018-03-08T02:49:41.624Z,149.80
2018-03-08T02:50:41.646Z,155.00
2018-03-08T02:51:41.663Z,138.60
2018-03-08T02:52:41.679Z,134.60
2018-03-08T02:53:41.691Z,160.30
2018-03-08T02:54:41.709Z,145.40
2018-03-08T02:55:41.726Z,133.70
2018-03-08T02:56:41.751Z,155.80
2018-03-08T02:57:41.767Z,158.50
2018-03-08T02:58:41.782Z,133.50
2018-03-08T02:59:41.796Z,148.60
2018-03-08T03:00:41.817Z,132.80
2018-03-08T03:01:41.835Z,149.20
2018-03-08T03:02:41.856Z,203.20
2018-03-08T03:03:41.871Z,162.30
2018-03-08T03:04:41.891Z,172.40
2018-03-08T03:05:41.906Z,162.40
2018-03-08T03:06:41.920Z,165.20
2018-03-08T03:07:41.941Z,157.30
2018-03-08T03:08:42.061Z,162.90
2018-03-08T03:09:41.976Z,155.60
2018-03-08T03:10:41.991Z,156.00
2018-03-08T03:11:42.010Z,161.00
2018-03-08T03:12:42.031Z,150.70
2018-03-08T03:13:42.048Z,154.50
2018-03-08T03:14:42.066Z,184.00
2018-03-08T03:15:42.080Z,172.30
2018-03-08T03:16:42.103Z,168.80
2018-03-08T03:17:42.119Z,166.50
2018-03-08T03:18:42.136Z,158.10
2018-03-08T03:19:42.150Z,166.80
2018-03-08T03:20:42.175Z,166.10
2018-03-08T03:21:42.196Z,170.10
2018-03-08T03:22:42.219Z,158.70
2018-03-08T03:23:42.221Z,176.70
2018-03-08T03:24:42.240Z,168.30
2018-03-08T03:25:42.270Z,168.30
2018-03-08T03:26:42.274Z,176.60
2018-03-08T03:27:42.292Z,169.10
2018-03-08T03:28:42.315Z,175.50
2018-03-08T03:29:42.331Z,209.70
2018-03-08T03:30:42.345Z,181.80
2018-03-08T03:31:42.365Z,180.90
2018-03-08T03:32:42.376Z,171.20
2018-03-08T03:33:42.399Z,170.90
2018-03-08T03:34:42.670Z,186.10
2018-03-08T03:35:42.435Z,174.20
2018-03-08T03:36:42.453Z,188.60
2018-03-08T03:37:42.471Z,201.40
2018-03-08T03:38:42.484Z,204.00
2018-03-08T03:39:42.498Z,184.90
2018-03-08T03:40:42.519Z,204.90
2018-03-08T03:41:42.537Z,187.60
2018-03-08T03:42:42.555Z,208.40
2018-03-08T03:43:42.568Z,194.70
2018-03-08T03:44:42.588Z,190.90
2018-03-08T03:45:42.609Z,197.20
2018-03-08T03:46:42.627Z,192.10
2018-03-08T03:47:42.639Z,196.50
2018-03-08T03:48:42.662Z,189.40
2018-03-08T03:49:42.687Z,213.30
2018-03-08T03:50:42.698Z,222.40
2018-03-08T03:51:42.713Z,173.60
2018-03-08T03:52:42.740Z,209.70
2018-03-08T03:53:42.744Z,171.10
2018-03-08T03:54:42.766Z,226.50
2018-03-08T03:55:42.778Z,203.70
2018-03-08T03:56:42.797Z,209.40
2018-03-08T03:57:42.823Z,231.20
2018-03-08T03:58:42.833Z,211.60
2018-03-08T03:59:42.849Z,206.20
2018-03-08T04:00:42.867Z,216.50
2018-03-08T04:01:42.887Z,220.20
2018-03-08T04:02:42.902Z,226.70
2018-03-08T04:03:42.920Z,227.30
2018-03-08T04:04:42.937Z,206.80
2018-03-08T04:05:42.951Z,211.60
2018-03-08T04:06:42.974Z,246.60
2018-03-08T04:07:42.990Z,218.30
2018-03-08T04:08:43.009Z,205.40
2018-03-08T04:09:43.031Z,232.00
2018-03-08T04:10:43.041Z,217.30
2018-03-08T04:11:43.060Z,252.30
2018-03-08T04:12:43.080Z,242.10
2018-03-08T04:13:43.095Z,213.10
2018-03-08T04:14:43.116Z,218.50
2018-03-08T04:15:43.127Z,250.90
2018-03-08T04:16:43.149Z,214.60
2018-03-08T04:17:43.167Z,237.40
2018-03-08T04:18:43.186Z,214.80
2018-03-08T04:19:43.198Z,209.50
2018-03-08T04:20:43.217Z,221.70
2018-03-08T04:21:43.231Z,247.60
2018-03-08T04:22:43.253Z,216.30
2018-03-08T04:23:43.272Z,229.00
2018-03-08T04:24:43.288Z,231.60
2018-03-08T04:25:43.307Z,275.20
2018-03-08T04:26:43.329Z,221.70
2018-03-08T04:27:43.350Z,253.50
2018-03-08T04:28:43.359Z,279.60
2018-03-08T04:29:43.376Z,238.00
2018-03-08T04:30:43.392Z,229.10
2018-03-08T04:31:43.406Z,229.70
2018-03-08T04:32:43.427Z,229.60
2018-03-08T04:33:43.445Z,218.40
2018-03-08T04:34:43.463Z,212.20
2018-03-08T04:35:43.480Z,247.00
2018-03-08T04:36:43.496Z,224.30
2018-03-08T04:37:43.515Z,218.00
2018-03-08T04:38:43.531Z,202.40
2018-03-08T04:39:43.546Z,214.00
2018-03-08T04:40:43.570Z,205.80
2018-03-08T04:41:43.585Z,207.60
2018-03-08T04:42:43.600Z,254.10
2018-03-08T04:43:43.616Z,256.10
2018-03-08T04:44:43.635Z,311.60
2018-03-08T04:45:43.651Z,294.00
2018-03-08T04:46:43.674Z,240.20
2018-03-08T04:47:43.684Z,221.00
2018-03-08T04:48:43.708Z,225.20
2018-03-08T04:49:43.725Z,275.20
2018-03-08T04:50:43.743Z,233.20
2018-03-08T04:51:43.757Z,212.10
2018-03-08T04:52:43.778Z,216.00
2018-03-08T04:53:43.791Z,354.40
2018-03-08T04:54:43.810Z,253.90
2018-03-08T04:55:43.826Z,217.50
2018-03-08T04:56:43.856Z,239.00
2018-03-08T04:57:43.859Z,274.30
2018-03-08T04:58:43.878Z,282.30
2018-03-08T04:59:43.899Z,252.50
2018-03-08T05:00:43.914Z,253.30
2018-03-08T05:01:43.937Z,211.20
2018-03-08T05:02:43.949Z,206.40
2018-03-08T05:03:43.971Z,268.50
2018-03-08T05:04:43.987Z,203.10
2018-03-08T05:05:43.998Z,228.30
2018-03-08T05:06:44.020Z,241.40
2018-03-08T05:07:44.034Z,210.00
2018-03-08T05:08:44.055Z,291.30
2018-03-08T05:09:44.074Z,284.90
2018-03-08T05:10:44.090Z,260.10
2018-03-08T05:11:44.103Z,226.00
2018-03-08T05:12:44.124Z,358.90
2018-03-08T05:13:44.143Z,237.00
2018-03-08T05:14:44.163Z,267.90
2018-03-08T05:15:44.173Z,251.70
2018-03-08T05:16:44.201Z,225.00
2018-03-08T05:17:44.206Z,214.40
2018-03-08T05:18:44.229Z,212.70
2018-03-08T05:19:44.246Z,230.70
2018-03-08T05:20:44.271Z,194.80
2018-03-08T05:21:44.282Z,205.90
2018-03-08T05:22:44.301Z,208.40
2018-03-08T05:23:44.365Z,262.80
2018-03-08T05:24:44.331Z,249.00
2018-03-08T05:25:44.352Z,254.00
2018-03-08T05:26:44.367Z,211.70
2018-03-08T05:27:44.387Z,210.10
2018-03-08T05:28:44.403Z,235.40
2018-03-08T05:29:44.417Z,204.90
2018-03-08T05:30:44.438Z,213.00
2018-03-08T05:31:44.452Z,222.10
2018-03-08T05:32:44.474Z,229.30
2018-03-08T05:33:44.492Z,266.40
2018-03-08T05:34:44.510Z,209.10
2018-03-08T05:35:44.524Z,199.40
2018-03-08T05:36:44.547Z,222.40
2018-03-08T05:37:44.560Z,228.80
2018-03-08T05:38:44.577Z,211.50
2018-03-08T05:39:44.589Z,218.00
2018-03-08T05:40:44.610Z,200.30
2018-03-08T05:41:44.877Z,214.30
2018-03-08T05:42:44.650Z,230.90
2018-03-08T05:43:44.664Z,201.80
2018-03-08T05:44:44.682Z,180.80
2018-03-08T05:45:44.699Z,184.40
2018-03-08T05:46:44.970Z,208.70
2018-03-08T05:47:44.732Z,175.90
2018-03-08T05:48:44.752Z,236.50
2018-03-08T05:49:44.768Z,226.30
2018-03-08T05:50:44.787Z,225.90
2018-03-08T05:51:44.799Z,201.90
2018-03-08T05:52:44.824Z,211.40
2018-03-08T05:53:44.836Z,214.50
2018-03-08T05:54:44.854Z,200.20
2018-03-08T05:55:44.871Z,191.00
2018-03-08T05:56:44.885Z,220.90
2018-03-08T05:57:44.911Z,232.60
2018-03-08T05:58:44.920Z,206.90
2018-03-08T05:59:44.940Z,216.80
2018-03-08T06:00:44.957Z,213.70
2018-03-08T06:01:44.976Z,240.90
2018-03-08T06:02:44.991Z,223.10
2018-03-08T06:03:45.015Z,216.40
2018-03-08T06:04:45.026Z,180.80
2018-03-08T06:05:45.041Z,167.80
2018-03-08T06:06:45.059Z,198.60
2018-03-08T06:07:45.075Z,191.50
2018-03-08T06:08:45.095Z,195.20
2018-03-08T06:09:45.111Z,180.00
2018-03-08T06:10:45.137Z,173.70
2018-03-08T06:11:45.150Z,209.00
2018-03-08T06:12:45.166Z,180.50
2018-03-08T06:13:45.180Z,166.00
2018-03-08T06:14:45.203Z,201.30
2018-03-08T06:15:45.220Z,168.70
2018-03-08T06:16:45.235Z,174.80
2018-03-08T06:17:45.256Z,175.20
2018-03-08T06:18:45.273Z,172.20
2018-03-08T06:19:45.318Z,208.20
2018-03-08T06:20:45.303Z,187.80
2018-03-08T06:21:45.325Z,191.40
2018-03-08T06:22:45.343Z,178.00
2018-03-08T06:23:45.359Z,192.90
2018-03-08T06:24:45.379Z,184.20
2018-03-08T06:25:45.393Z,191.30
2018-03-08T06:26:45.412Z,191.00
2018-03-08T06:27:45.428Z,190.50
2018-03-08T06:28:45.445Z,185.30
2018-03-08T06:29:45.464Z,171.50
2018-03-08T06:30:45.483Z,184.00
2018-03-08T06:31:45.498Z,189.70
2018-03-08T06:32:45.519Z,172.20
2018-03-08T06:33:45.540Z,180.40
2018-03-08T06:34:45.557Z,182.20
2018-03-08T06:35:45.567Z,170.20
2018-03-08T06:36:45.592Z,173.10
2018-03-08T06:37:45.604Z,181.80
2018-03-08T06:38:45.627Z,163.00
2018-03-08T06:39:45.647Z,197.30
2018-03-08T06:40:45.663Z,182.30
2018-03-08T06:41:45.679Z,184.20
2018-03-08T06:42:45.696Z,181.40
2018-03-08T06:43:45.712Z,190.70
2018-03-08T06:44:45.743Z,177.90
2018-03-08T06:45:45.753Z,176.90
2018-03-08T06:46:45.762Z,198.30
2018-03-08T06:47:45.792Z,173.20
2018-03-08T06:48:45.798Z,164.20
2018-03-08T06:49:45.820Z,159.70
2018-03-08T06:50:45.842Z,166.70
2018-03-08T06:51:45.853Z,178.90
2018-03-08T06:52:45.884Z,179.00
2018-03-08T06:53:45.890Z,194.10
2018-03-08T06:54:45.907Z,163.50
2018-03-08T06:55:45.927Z,184.50
2018-03-08T06:56:45.943Z,184.20
2018-03-08T06:57:45.973Z,162.90
2018-03-08T06:58:45.982Z,168.20
2018-03-08T06:59:45.996Z,161.90
2018-03-08T07:00:46.014Z,171.50
2018-03-08T07:01:46.032Z,167.50
2018-03-08T07:02:46.055Z,182.10
2018-03-08T07:03:46.072Z,163.00
2018-03-08T07:04:46.086Z,167.50
2018-03-08T07:05:46.104Z,159.70
2018-03-08T07:06:46.121Z,162.40
2018-03-08T07:07:46.136Z,164.90
2018-03-08T07:08:46.159Z,161.10
2018-03-08T07:09:46.179Z,149.40
2018-03-08T07:10:46.196Z,145.20
2018-03-08T07:11:46.209Z,152.30
2018-03-08T07:12:46.236Z,156.10
2018-03-08T07:13:46.246Z,142.80
2018-03-08T07:14:46.263Z,161.80
2018-03-08T07:15:46.307Z,147.90
2018-03-08T07:16:46.301Z,149.30
2018-03-08T07:17:46.315Z,136.40
2018-03-08T07:18:46.345Z,142.40
2018-03-08T07:19:46.350Z,135.40
2018-03-08T07:20:46.369Z,132.30
2018-03-08T07:21:46.386Z,133.10
2018-03-08T07:22:46.403Z,131.30
2018-03-08T07:23:46.420Z,136.20
2018-03-08T07:24:46.435Z,124.00
2018-03-08T07:25:46.462Z,118.20
2018-03-08T07:26:46.478Z,132.70
2018-03-08T07:27:46.491Z,108.80
2018-03-08T07:28:46.511Z,117.50
2018-03-08T07:29:46.529Z,115.30
2018-03-08T07:30:46.538Z,118.40
2018-03-08T07:31:46.559Z,110.70
2018-03-08T07:32:46.827Z,103.50
2018-03-08T07:33:46.595Z,102.20
2018-03-08T07:34:46.615Z,110.40
2018-03-08T07:35:46.628Z,106.20
2018-03-08T07:36:46.654Z,105.90
2018-03-08T07:37:46.668Z,103.60
2018-03-08T07:38:46.679Z,106.30
2018-03-08T07:39:46.694Z,104.60
2018-03-08T07:40:46.710Z,102.50
2018-03-08T07:41:46.735Z,106.40
2018-03-08T07:42:46.750Z,120.10
2018-03-08T07:43:46.764Z,118.90
2018-03-08T07:44:46.778Z,158.70
2018-03-08T07:45:46.795Z,152.60
2018-03-08T07:46:46.813Z,126.90
2018-03-08T07:47:46.838Z,139.00
2018-03-08T07:48:46.844Z,132.80
2018-03-08T07:49:46.863Z,125.60
2018-03-08T07:50:46.883Z,117.30
2018-03-08T07:51:46.935Z,147.00
2018-03-08T07:52:46.916Z,140.80
2018-03-08T07:53:46.931Z,127.50
2018-03-08T07:54:46.947Z,117.90
2018-03-08T07:55:46.965Z,107.00
2018-03-08T07:56:46.981Z,96.70
2018-03-08T07:57:46.992Z,98.50
2018-03-08T07:58:47.018Z,85.30
2018-03-08T07:59:47.024Z,95.50
2018-03-08T08:00:47.043Z,104.20
2018-03-08T08:01:47.069Z,111.50
2018-03-08T08:02:47.081Z,96.30
2018-03-08T08:03:47.107Z,96.00
2018-03-08T08:04:47.112Z,85.60
2018-03-08T08:05:47.130Z,92.80
2018-03-08T08:06:47.148Z,82.20
2018-03-08T08:07:47.160Z,104.80
2018-03-08T08:08:47.181Z,1.70
2018-03-08T08:09:47.190Z,0.90
2018-03-08T08:10:47.458Z,0.70
2018-03-08T08:11:47.223Z,0.80
2018-03-08T08:12:47.241Z,0.90
2018-03-08T08:13:47.261Z,0.70
2018-03-08T08:14:47.274Z,0.40
2018-03-08T08:15:47.290Z,0.60
2018-03-08T08:16:47.309Z,0.40
2018-03-08T08:17:47.319Z,0.50
2018-03-08T08:18:47.333Z,0.50
2018-03-08T08:19:47.352Z,0.50
2018-03-08T08:20:47.368Z,0.30
2018-03-08T08:21:47.381Z,0.50
2018-03-08T08:22:47.400Z,0.60
2018-03-08T08:23:47.418Z,0.50
2018-03-08T08:24:47.429Z,0.40
2018-03-08T08:25:47.454Z,0.50
2018-03-08T08:26:47.476Z,0.40
2018-03-08T08:27:47.481Z,0.30
2018-03-08T08:28:47.502Z,0.50
2018-03-08T08:29:47.510Z,0.40
2018-03-08T08:30:47.528Z,0.60
2018-03-08T08:31:47.542Z,0.40
2018-03-08T08:32:47.561Z,1.10
2018-03-08T08:33:47.578Z,0.60
2018-03-08T08:34:47.596Z,0.40
2018-03-08T08:35:47.606Z,0.60
2018-03-08T08:36:47.622Z,0.40
2018-03-08T08:37:47.644Z,0.50
2018-03-08T08:38:47.662Z,0.40
2018-03-08T08:39:47.674Z,0.60
2018-03-08T08:40:47.697Z,0.40
2018-03-08T08:41:47.706Z,0.50
2018-03-08T08:42:47.729Z,0.30
2018-03-08T08:43:47.742Z,0.50
2018-03-08T08:44:47.756Z,0.40
2018-03-08T08:45:47.770Z,0.40
2018-03-08T08:46:47.796Z,0.50
2018-03-08T08:47:47.807Z,0.40
2018-03-08T08:48:47.820Z,0.50
2018-03-08T08:49:47.842Z,0.40
2018-03-08T08:50:47.860Z,0.40
2018-03-08T08:51:47.874Z,0.40
2018-03-08T08:52:47.890Z,0.30
2018-03-08T08:53:47.906Z,0.40
2018-03-08T08:54:47.920Z,0.40
2018-03-08T08:55:47.941Z,0.30
2018-03-08T08:56:47.954Z,0.40
2018-03-08T08:57:47.972Z,0.40
2018-03-08T08:58:47.993Z,0.30
2018-03-08T08:59:48.008Z,0.50
2018-03-08T09:00:48.027Z,0.30
2018-03-08T09:01:48.048Z,0.60
2018-03-08T09:02:48.058Z,0.40
2018-03-08T09:03:48.075Z,0.30
2018-03-08T09:04:48.099Z,0.40
2018-03-08T09:05:48.109Z,0.40
2018-03-08T09:06:48.123Z,0.40
2018-03-08T09:07:48.139Z,0.50
2018-03-08T09:08:48.163Z,0.50
2018-03-08T09:09:48.176Z,0.60
2018-03-08T09:10:48.192Z,0.40
2018-03-08T09:11:48.213Z,0.50
2018-03-08T09:12:48.233Z,0.40
2018-03-08T09:13:48.257Z,0.60
2018-03-08T09:14:48.263Z,0.30
2018-03-08T09:15:48.279Z,0.40
2018-03-08T09:16:48.296Z,0.30
2018-03-08T09:17:48.315Z,0.50
2018-03-08T09:18:48.335Z,0.60
2018-03-08T09:19:48.348Z,0.40
2018-03-08T09:20:48.369Z,0.40
2018-03-08T09:21:48.383Z,0.40
2018-03-08T09:22:48.399Z,0.40
2018-03-08T09:23:48.460Z,0.50
2018-03-08T09:24:48.433Z,0.50
2018-03-08T09:25:48.453Z,0.30
2018-03-08T09:26:48.468Z,0.40
2018-03-08T09:27:48.490Z,0.30
2018-03-08T09:28:48.504Z,0.50
2018-03-08T09:29:48.520Z,0.30
2018-03-08T09:30:48.550Z,0.30
2018-03-08T09:31:48.558Z,0.50
2018-03-08T09:32:48.573Z,0.30
2018-03-08T09:33:48.588Z,0.40
2018-03-08T09:34:48.617Z,0.50
2018-03-08T09:35:48.625Z,0.40
2018-03-08T09:36:48.641Z,0.50
2018-03-08T09:37:48.666Z,0.30
2018-03-08T09:38:48.678Z,0.50
2018-03-08T09:39:48.700Z,0.50
2018-03-08T09:40:48.719Z,0.40
2018-03-08T09:41:48.742Z,0.30
2018-03-08T09:42:48.753Z,0.60
2018-03-08T09:43:48.779Z,0.30
2018-03-08T09:44:48.787Z,0.40
2018-03-08T09:45:48.802Z,0.40
2018-03-08T09:46:48.817Z,0.30
2018-03-08T09:47:48.844Z,0.40
2018-03-08T09:48:48.854Z,0.40
2018-03-08T09:49:48.877Z,0.30
2018-03-08T09:50:48.902Z,0.40
2018-03-08T09:51:48.962Z,0.40
2018-03-08T09:52:48.932Z,0.40
2018-03-08T09:53:49.191Z,0.40
2018-03-08T09:54:48.959Z,0.50
2018-03-08T09:55:48.981Z,0.40
2018-03-08T09:56:49.000Z,0.40
2018-03-08T09:57:49.020Z,0.50
2018-03-08T09:58:49.034Z,0.50
2018-03-08T09:59:49.053Z,0.50
2018-03-08T10:00:49.072Z,0.40
2018-03-08T10:01:49.090Z,0.30
2018-03-08T10:02:49.107Z,0.40
2018-03-08T10:03:49.120Z,0.60
2018-03-08T10:04:49.138Z,0.40
2018-03-08T10:05:49.165Z,0.60
2018-03-08T10:06:49.179Z,0.30
2018-03-08T10:07:49.200Z,0.40
2018-03-08T10:08:49.221Z,0.40
2018-03-08T10:09:49.227Z,0.40
2018-03-08T10:10:49.247Z,0.40
2018-03-08T10:11:49.269Z,0.50
2018-03-08T10:12:49.292Z,0.40
2018-03-08T10:13:49.300Z,0.30
2018-03-08T10:14:49.315Z,0.60
2018-03-08T10:15:49.337Z,0.50
2018-03-08T10:16:49.349Z,0.40
2018-03-08T10:17:49.370Z,0.50
2018-03-08T10:18:49.389Z,0.40
2018-03-08T10:19:49.408Z,0.40
2018-03-08T10:20:49.679Z,0.50
2018-03-08T10:21:49.460Z,0.30
2018-03-08T10:22:49.476Z,0.30
2018-03-08T10:23:49.475Z,0.40
2018-03-08T10:24:49.496Z,0.50
2018-03-08T10:25:49.519Z,0.30
2018-03-08T10:26:49.534Z,0.30
2018-03-08T10:27:49.552Z,0.40
2018-03-08T10:28:49.821Z,0.70
2018-03-08T10:29:49.647Z,0.30
2018-03-08T10:30:49.610Z,0.40
2018-03-08T10:31:49.633Z,0.50
2018-03-08T10:32:49.649Z,0.40
2018-03-08T10:33:49.666Z,0.40
2018-03-08T10:34:49.686Z,0.40
2018-03-08T10:35:49.697Z,0.50
2018-03-08T10:36:49.718Z,0.30
2018-03-08T10:37:49.734Z,0.30
2018-03-08T10:38:49.753Z,0.50
2018-03-08T10:39:49.777Z,0.40
2018-03-08T10:40:49.792Z,0.40
2018-03-08T10:41:49.813Z,0.60
2018-03-08T10:42:49.836Z,0.60
2018-03-08T10:43:49.858Z,0.40
2018-03-08T10:44:49.873Z,0.40
2018-03-08T10:45:49.883Z,0.30
2018-03-08T10:46:49.912Z,0.40
2018-03-08T10:47:49.926Z,0.40
2018-03-08T10:49:49.964Z,0.50
2018-03-08T10:50:49.981Z,0.40
2018-03-08T10:51:50.009Z,0.30
2018-03-08T10:52:50.017Z,0.40
2018-03-08T10:53:50.037Z,0.30
2018-03-08T10:54:50.060Z,0.30
2018-03-08T10:55:50.079Z,0.30
2018-03-08T10:56:50.105Z,0.30
2018-03-08T10:57:50.126Z,0.40
2018-03-08T10:58:50.139Z,0.40
2018-03-08T10:59:50.156Z,0.60
2018-03-08T11:00:50.177Z,0.40
2018-03-08T11:01:50.450Z,0.30
2018-03-08T11:02:50.216Z,0.40
2018-03-08T11:03:50.237Z,0.40
2018-03-08T11:04:50.262Z,0.20
2018-03-08T11:05:50.284Z,0.20
2018-03-08T11:06:50.306Z,0.30
2018-03-08T11:07:50.327Z,0.30
2018-03-08T11:08:50.348Z,0.30
2018-03-08T11:09:50.363Z,0.30
2018-03-08T11:10:50.384Z,0.40
2018-03-08T11:11:50.407Z,0.30
2018-03-08T11:12:50.432Z,0.40
2018-03-08T11:13:50.446Z,0.40
2018-03-08T11:14:50.472Z,0.20
2018-03-08T11:15:50.494Z,0.50
2018-03-08T11:16:50.519Z,0.40
2018-03-08T11:17:50.540Z,0.30
2018-03-08T11:18:50.561Z,0.40
2018-03-08T11:19:50.589Z,0.40
2018-03-08T11:20:50.606Z,0.20
2018-03-08T11:21:50.634Z,0.30
2018-03-08T11:22:50.662Z,0.30
2018-03-08T11:23:50.678Z,0.30
2018-03-08T11:24:50.696Z,0.30
2018-03-08T11:25:50.722Z,0.20
2018-03-08T11:26:50.745Z,0.20
2018-03-08T11:27:50.771Z,0.30
2018-03-08T11:28:50.795Z,0.30
2018-03-08T11:29:50.817Z,0.30
2018-03-08T11:30:50.843Z,0.10
2018-03-08T11:31:50.868Z,0.20
2018-03-08T11:32:50.890Z,0.20
2018-03-08T11:33:50.916Z,0.20
2018-03-08T11:34:50.940Z,0.20
2018-03-08T11:35:50.961Z,0.10
2018-03-08T11:36:50.985Z,0.30
2018-03-08T11:37:51.009Z,0.10
2018-03-08T11:38:51.031Z,0.20
2018-03-08T11:39:51.064Z,0.10
2018-03-08T11:40:51.080Z,0.10
2018-03-08T11:41:51.101Z,0.40
2018-03-08T11:42:51.129Z,0.40
2018-03-08T11:43:51.150Z,0.20
2018-03-08T11:44:51.175Z,0.40
2018-03-08T11:45:51.199Z,0.20
2018-03-08T11:46:51.224Z,0.30
2018-03-08T11:47:51.249Z,0.30
2018-03-08T11:48:51.281Z,0.10
2018-03-08T11:49:51.301Z,0.20
2018-03-08T11:50:51.324Z,0.20
2018-03-08T11:51:51.351Z,0.20
2018-03-08T11:52:51.383Z,0.10
2018-03-08T11:53:51.401Z,0.20
2018-03-08T11:54:51.464Z,0.20
2018-03-08T11:55:51.452Z,0.30
2018-03-08T11:56:51.478Z,0.10
2018-03-08T11:57:51.501Z,0.30
2018-03-08T11:58:51.522Z,0.10
2018-03-08T11:59:51.549Z,0.20
2018-03-08T12:00:51.568Z,0.20
2018-03-08T12:01:51.598Z,0.40
2018-03-08T12:02:51.626Z,0.30
2018-03-08T12:03:51.643Z,0.40
2018-03-08T12:04:51.668Z,0.60
2018-03-08T12:05:51.731Z,0.30
2018-03-08T12:06:51.721Z,0.40
2018-03-08T12:07:51.744Z,0.30
2018-03-08T12:08:51.770Z,0.10
2018-03-08T12:09:51.796Z,0.20
2018-03-08T12:10:51.822Z,0.20
2018-03-08T12:11:51.847Z,0.10
2018-03-08T12:12:51.877Z,0.30
2018-03-08T12:13:51.904Z,0.20
2018-03-08T12:14:51.931Z,0.20
2018-03-08T12:15:51.958Z,0.10
2018-03-08T12:16:52.012Z,0.40
2018-03-08T12:17:52.078Z,0.30
2018-03-08T12:18:52.046Z,0.30
2018-03-08T12:19:52.078Z,0.20
2018-03-08T12:20:52.107Z,0.10
2018-03-08T12:21:52.128Z,0.10
2018-03-08T12:22:52.156Z,0.20
2018-03-08T12:23:52.185Z,0.20
2018-03-08T12:24:52.211Z,0.30
2018-03-08T12:25:52.246Z,0.20
2018-03-08T12:26:52.267Z,0.30
2018-03-08T12:27:52.301Z,0.40
2018-03-08T12:28:52.334Z,0.30
2018-03-08T12:29:52.609Z,0.20
2018-03-08T12:30:52.387Z,0.20
2018-03-08T12:31:52.416Z,0.20
2018-03-08T12:32:52.451Z,0.20
2018-03-08T12:33:52.476Z,0.20
2018-03-08T12:34:52.760Z,0.30
2018-03-08T12:35:52.535Z,0.20
2018-03-08T12:36:52.571Z,0.20
2018-03-08T12:37:52.609Z,0.10
2018-03-08T12:38:52.631Z,0.20
2018-03-08T12:39:52.665Z,0.20
2018-03-08T12:40:52.696Z,0.20
2018-03-08T12:41:52.734Z,0.20
2018-03-08T12:42:52.765Z,0.20
2018-03-08T12:43:52.804Z,0.20
2018-03-08T12:44:52.834Z,0.20
2018-03-08T12:45:52.863Z,0.20
2018-03-08T12:46:52.895Z,0.30
2018-03-08T12:47:52.926Z,0.20